Time;durP1;ratioP1;P1;durP2;ratioP2;P2;SDS_P1;SDS_P2;PMS_P1;PMS_P2;Temp;Humidity;BMP_temperature;BMP_pressure;BME280_temperature;BME280_humidity;BME280_pressure;Samples;Min_cycle;Max_cycle;Signal;HPM_P1;HPM_P2
2022/05/10 00:02:11;;;;;;;2.08;1.30;;;;;;;21.34;46.58;100626.80;1764763;80;21054;-66
2022/05/10 00:04:38;;;;;;;1.17;1.15;;;;;;;21.33;46.59;100629.19;1764744;81;21026;-66
2022/05/10 00:07:06;;;;;;;1.35;1.25;;;;;;;21.32;46.58;100624.81;1764211;81;21054;-67
2022/05/10 00:09:33;;;;;;;2.20;1.50;;;;;;;21.31;46.59;100625.06;1764976;81;21003;-67
2022/05/10 00:11:59;;;;;;;1.37;1.27;;;;;;;21.29;46.58;100627.97;1764775;81;21039;-67
2022/05/10 00:14:27;;;;;;;1.40;1.30;;;;;;;21.28;46.61;100626.30;1763575;81;21022;-66
2022/05/10 00:16:54;;;;;;;1.65;1.20;;;;;;;21.27;46.62;100626.01;1764634;81;21007;-67
2022/05/10 00:19:22;;;;;;;1.10;1.10;;;;;;;21.26;46.61;100623.52;1764595;81;21095;-67
2022/05/10 00:21:49;;;;;;;1.45;1.35;;;;;;;21.25;46.61;100627.25;1764493;81;21006;-65
2022/05/10 00:24:17;;;;;;;1.42;1.32;;;;;;;21.24;46.61;100624.26;1743370;81;21566;-66
2022/05/10 00:26:45;;;;;;;1.10;1.10;;;;;;;21.23;46.62;100622.59;1764690;81;21022;-67
2022/05/10 00:29:11;;;;;;;1.27;1.17;;;;;;;21.20;46.62;100625.21;1764649;81;21011;-66
2022/05/10 00:31:38;;;;;;;1.30;1.20;;;;;;;21.19;46.63;100620.87;1763490;81;21176;-67
2022/05/10 00:34:04;;;;;;;1.60;1.50;;;;;;;21.18;46.63;100625.95;1743101;81;21077;-67
2022/05/10 00:36:32;;;;;;;1.37;1.37;;;;;;;21.16;46.62;100620.76;1764618;80;21019;-66
2022/05/10 00:38:58;;;;;;;0.95;0.95;;;;;;;21.16;46.65;100621.29;1764687;81;21034;-67
2022/05/10 00:41:30;;;;;;;1.50;1.40;;;;;;;21.13;46.64;100619.86;1742981;81;21340;-67
2022/05/10 00:44:05;;;;;;;1.37;1.10;;;;;;;21.11;46.64;100617.90;1765084;81;21135;-68
2022/05/10 00:46:38;;;;;;;1.30;1.20;;;;;;;21.11;46.64;100620.59;1764963;81;21547;-67
2022/05/10 00:49:20;;;;;;;1.47;1.30;;;;;;;21.09;46.64;100620.48;1763745;81;21022;-67
2022/05/10 00:52:16;;;;;;;1.32;1.22;;;;;;;21.06;46.66;100621.77;1764933;81;21018;-67
2022/05/10 00:54:57;;;;;;;1.30;1.20;;;;;;;21.05;46.68;100619.27;1764850;81;21530;-66
2022/05/10 00:57:44;;;;;;;1.40;1.30;;;;;;;21.03;46.69;100617.30;1764855;81;21143;-67
2022/05/10 01:00:21;;;;;;;1.10;1.10;;;;;;;21.00;46.70;100622.09;1764655;81;21090;-67
2022/05/10 01:03:02;;;;;;;0.82;0.82;;;;;;;20.99;46.70;100623.66;1764333;81;21084;-67
2022/05/10 01:05:53;;;;;;;1.12;1.10;;;;;;;20.95;46.74;100615.15;1763750;81;21187;-66
2022/05/10 01:08:23;;;;;;;1.35;1.25;;;;;;;20.94;46.74;100616.74;1764279;81;21132;-68
2022/05/10 01:11:10;;;;;;;1.62;1.30;;;;;;;20.92;46.76;100621.50;1764774;80;21230;-68
2022/05/10 01:14:01;;;;;;;1.30;1.20;;;;;;;20.90;46.77;100627.14;1744378;81;21011;-67
2022/05/10 01:16:28;;;;;;;1.47;1.37;;;;;;;20.89;46.77;100620.06;1764773;81;21046;-67
2022/05/10 01:18:55;;;;;;;1.00;1.00;;;;;;;20.86;46.79;100628.62;1764708;81;21030;-67
2022/05/10 01:21:51;;;;;;;1.50;1.40;;;;;;;20.85;46.82;100626.95;1763945;80;21022;-66
2022/05/10 01:24:40;;;;;;;1.27;1.17;;;;;;;20.82;46.87;100620.61;1782994;80;21143;-67
2022/05/10 01:27:32;;;;;;;1.15;1.10;;;;;;;20.81;46.85;100622.48;1784066;80;20997;-65
2022/05/10 01:30:15;;;;;;;1.00;1.00;;;;;;;20.79;46.83;100620.53;1784195;80;21065;-66
2022/05/10 01:33:30;;;;;;;1.20;1.10;;;;;;;20.77;46.89;100623.96;1787204;80;21621;-66
2022/05/10 01:36:36;;;;;;;1.50;1.40;;;;;;;20.76;46.85;100626.34;1776623;80;21013;-67
2022/05/10 01:39:28;;;;;;;1.40;1.30;;;;;;;20.73;46.91;100620.56;1783024;80;21142;-66
2022/05/10 01:42:13;;;;;;;1.30;1.20;;;;;;;20.71;46.90;100614.55;1784171;80;21041;-67
2022/05/10 01:44:57;;;;;;;1.10;1.10;;;;;;;20.67;46.94;100611.45;1782586;80;21061;-67
2022/05/10 01:47:36;;;;;;;1.30;1.20;;;;;;;20.66;46.94;100608.95;1783846;79;21058;-66
2022/05/10 01:50:25;;;;;;;1.45;1.35;;;;;;;20.64;46.95;100610.52;1755909;80;21055;-66
2022/05/10 01:52:57;;;;;;;1.62;1.50;;;;;;;20.63;46.98;100610.22;1764551;81;21095;-66
2022/05/10 01:55:29;;;;;;;1.60;1.50;;;;;;;20.59;46.96;100607.11;1777762;80;21018;-66
2022/05/10 01:58:01;;;;;;;2.83;1.65;;;;;;;20.59;46.98;100611.16;1751931;81;21030;-67
2022/05/10 02:00:28;;;;;;;1.67;1.32;;;;;;;20.58;46.99;100604.06;1753391;81;21726;-67
2022/05/10 02:03:22;;;;;;;1.30;1.20;;;;;;;20.57;46.98;100609.16;1753132;81;21021;-66
2022/05/10 02:06:23;;;;;;;1.60;1.50;;;;;;;20.57;46.99;100605.61;1748605;81;21010;-66
2022/05/10 02:09:21;;;;;;;1.50;1.40;;;;;;;20.55;46.99;100607.20;1756171;81;21036;-67
2022/05/10 02:12:02;;;;;;;1.55;1.45;;;;;;;20.54;47.02;100603.36;1721833;81;21533;-66
2022/05/10 02:14:33;;;;;;;1.60;1.50;;;;;;;20.51;47.01;100611.34;1709063;82;21086;-65
2022/05/10 02:17:14;;;;;;;2.37;1.45;;;;;;;20.50;47.03;100612.92;1734204;82;21489;-67
2022/05/10 02:20:07;;;;;;;1.80;1.50;;;;;;;20.49;47.05;100612.08;1741224;82;21223;-67
2022/05/10 02:22:57;;;;;;;2.35;1.65;;;;;;;20.48;47.04;100610.44;1763587;80;21248;-66
2022/05/10 02:25:29;;;;;;;2.20;1.55;;;;;;;20.47;47.06;100611.46;1764967;81;21018;-66
2022/05/10 02:28:32;;;;;;;2.02;1.55;;;;;;;20.45;47.05;100608.14;1765326;81;21025;-67
2022/05/10 02:31:00;;;;;;;2.65;1.95;;;;;;;20.43;47.06;100608.35;1707447;81;21096;-66
2022/05/10 02:33:27;;;;;;;2.00;1.80;;;;;;;20.43;47.06;100611.58;1715027;83;21097;-66
2022/05/10 02:35:59;;;;;;;2.55;2.08;;;;;;;20.40;47.07;100610.14;1750968;82;20998;-67
2022/05/10 02:38:36;;;;;;;2.83;1.77;;;;;;;20.39;47.05;100609.00;1750987;82;21001;-67
2022/05/10 02:41:10;;;;;;;2.55;2.00;;;;;;;20.38;47.06;100604.66;1751013;82;21096;-67
2022/05/10 02:43:58;;;;;;;3.47;1.98;;;;;;;20.38;47.07;100612.76;1749623;82;21044;-67
2022/05/10 02:46:25;;;;;;;3.15;2.10;;;;;;;20.37;47.07;100613.25;1752197;80;21799;-66
2022/05/10 02:48:52;;;;;;;3.08;2.33;;;;;;;20.37;47.09;100612.43;1764414;80;21029;-66
2022/05/10 02:51:19;;;;;;;3.58;2.40;;;;;;;20.36;47.11;100617.53;1781909;80;21054;-66
2022/05/10 02:53:46;;;;;;;3.12;1.87;;;;;;;20.35;47.11;100611.81;1781847;80;20997;-67
2022/05/10 02:56:16;;;;;;;3.80;2.50;;;;;;;20.34;47.12;100613.69;1781848;80;21092;-67
2022/05/10 02:59:03;;;;;;;2.87;2.10;;;;;;;20.34;47.09;100608.80;1782178;80;21075;-67
2022/05/10 03:02:00;;;;;;;3.40;2.42;;;;;;;20.34;47.09;100611.49;1782051;80;21015;-67
2022/05/10 03:04:35;;;;;;;3.27;2.40;;;;;;;20.32;47.10;100614.42;1761631;80;21009;-67
2022/05/10 03:07:04;;;;;;;3.15;2.20;;;;;;;20.32;47.12;100616.27;1750588;81;21049;-67
2022/05/10 03:09:31;;;;;;;3.37;2.55;;;;;;;20.30;47.14;100615.66;1721921;82;21025;-67
2022/05/10 03:11:58;;;;;;;4.80;2.83;;;;;;;20.30;47.13;100613.81;1750914;82;21039;-66
2022/05/10 03:14:24;;;;;;;2.87;2.55;;;;;;;20.29;47.14;100612.14;1750775;82;21025;-67
2022/05/10 03:16:51;;;;;;;2.98;2.62;;;;;;;20.29;47.20;100616.19;1751087;82;21486;-66
2022/05/10 03:19:18;;;;;;;4.12;2.52;;;;;;;20.28;47.19;100615.04;1750831;80;21111;-67
2022/05/10 03:21:45;;;;;;;4.55;3.27;;;;;;;20.28;47.16;100616.39;1751922;80;21089;-67
2022/05/10 03:24:11;;;;;;;4.10;3.15;;;;;;;20.27;47.16;100613.40;1776445;79;22511;-67
2022/05/10 03:26:38;;;;;;;4.33;3.05;;;;;;;20.27;47.15;100618.80;1756057;81;20973;-67
2022/05/10 03:29:05;;;;;;;4.22;2.60;;;;;;;20.27;47.16;100614.75;1739491;82;21069;-67
2022/05/10 03:31:32;;;;;;;3.25;2.95;;;;;;;20.27;47.17;100618.80;1747760;82;21062;-66
2022/05/10 03:36:44;;;;;;;4.50;3.27;;;;;;;20.26;47.17;100617.94;1747721;82;21146;-67
2022/05/10 03:39:10;;;;;;;5.22;3.42;;;;;;;20.26;47.17;100622.52;1748671;80;21037;-66
2022/05/10 03:41:37;;;;;;;4.12;3.30;;;;;;;20.24;47.17;100618.67;1747681;82;21006;-66
2022/05/10 03:44:07;;;;;;;3.92;3.00;;;;;;;20.24;47.18;100624.07;1747654;82;21010;-66
2022/05/10 03:46:34;;;;;;;4.28;3.30;;;;;;;20.24;47.15;100620.02;1747840;82;21026;-67
2022/05/10 03:49:00;;;;;;;5.10;3.65;;;;;;;20.25;47.14;100625.74;1762830;80;21143;-67
2022/05/10 03:51:27;;;;;;;4.95;3.67;;;;;;;20.25;47.16;100626.27;1778594;80;21065;-66
2022/05/10 03:53:53;;;;;;;4.45;3.30;;;;;;;20.25;47.12;100635.19;1777907;80;21003;-66
2022/05/10 03:56:19;;;;;;;4.92;3.85;;;;;;;20.26;47.09;100625.22;1747608;82;21065;-67
2022/05/10 03:58:47;;;;;;;4.53;3.58;;;;;;;20.26;47.11;100624.69;1747861;82;21049;-67
2022/05/10 04:01:13;;;;;;;4.87;3.90;;;;;;;20.26;47.10;100632.78;1747739;82;21080;-66
2022/05/10 04:03:40;;;;;;;6.42;4.05;;;;;;;20.27;47.11;100629.06;1747753;82;21026;-66
2022/05/10 04:06:07;;;;;;;5.40;3.55;;;;;;;20.28;47.12;100628.53;1747645;81;21131;-66
2022/05/10 04:08:33;;;;;;;6.33;4.22;;;;;;;20.29;47.08;100628.86;1747788;82;21014;-66
2022/05/10 04:11:05;;;;;;;5.28;3.95;;;;;;;20.29;47.09;100628.33;1748803;80;21033;-66
2022/05/10 04:13:32;;;;;;;6.20;3.80;;;;;;;20.30;47.08;100627.80;1747659;82;21145;-67
2022/05/10 04:15:59;;;;;;;5.90;4.33;;;;;;;20.32;47.07;100628.41;1747779;82;21081;-66
2022/05/10 04:18:27;;;;;;;4.62;3.98;;;;;;;20.33;47.07;100630.09;1747731;82;21541;-67
2022/05/10 04:20:53;;;;;;;6.10;4.60;;;;;;;20.35;47.07;100634.75;1747673;81;21062;-66
2022/05/10 04:23:20;;;;;;;5.40;4.10;;;;;;;20.36;47.06;100628.33;1746969;82;21069;-66
2022/05/10 04:25:47;;;;;;;6.67;4.67;;;;;;;20.38;47.05;100633.00;1739986;82;21059;-66
2022/05/10 04:28:13;;;;;;;5.55;4.33;;;;;;;20.39;47.05;100631.94;1740859;81;20995;-66
2022/05/10 04:30:40;;;;;;;5.62;4.75;;;;;;;20.40;47.04;100631.73;1740112;82;20994;-67
2022/05/10 04:33:07;;;;;;;5.08;4.25;;;;;;;20.43;47.02;100633.17;1753000;81;21040;-67
2022/05/10 04:35:33;;;;;;;5.75;4.95;;;;;;;20.44;47.00;100632.14;1753097;81;21473;-67
2022/05/10 04:39:20;;;;;;;5.97;5.37;;;;;;;20.50;47.00;100626.42;1879615;75;22806;-65
2022/05/10 04:41:49;;;;;;;5.53;4.40;;;;;;;20.52;46.92;100630.56;1840194;76;20971;-64
2022/05/10 04:44:20;;;;;;;5.15;4.65;;;;;;;20.55;46.90;100627.95;1847472;76;20987;-66
2022/05/10 04:46:47;;;;;;;6.05;5.03;;;;;;;20.55;46.88;100622.55;1845006;76;21007;-65
2022/05/10 04:49:14;;;;;;;6.53;5.03;;;;;;;20.55;46.89;100622.05;1840637;76;22065;-65
2022/05/10 04:51:41;;;;;;;6.00;4.72;;;;;;;20.57;46.89;100628.56;1830189;76;21064;-65
2022/05/10 04:54:08;;;;;;;7.92;5.33;;;;;;;20.57;46.89;100626.71;1845324;76;20934;-67
2022/05/10 04:56:34;;;;;;;7.22;5.33;;;;;;;20.57;46.91;100622.66;1813602;78;21131;-66
2022/05/10 04:59:01;;;;;;;6.08;5.03;;;;;;;20.58;46.87;100618.91;1812678;78;21114;-65
2022/05/10 05:01:29;;;;;;;6.67;4.65;;;;;;;20.58;46.87;100616.20;1806098;78;21002;-67
2022/05/10 05:03:56;;;;;;;6.72;5.00;;;;;;;20.60;46.86;100621.43;1766279;79;21545;-65
2022/05/10 05:06:24;;;;;;;6.60;5.40;;;;;;;20.60;46.87;100619.55;1789297;79;21059;-66
2022/05/10 05:08:51;;;;;;;6.83;5.22;;;;;;;20.62;46.85;100618.81;1793456;79;21615;-66
2022/05/10 05:11:17;;;;;;;7.17;5.28;;;;;;;20.63;46.86;100621.02;1786652;79;22270;-66
2022/05/10 05:13:44;;;;;;;6.85;5.67;;;;;;;20.64;46.84;100622.66;1761530;79;21100;-66
2022/05/10 05:16:10;;;;;;;6.75;5.17;;;;;;;20.64;46.84;100617.27;1760524;81;21092;-65
2022/05/10 05:18:37;;;;;;;6.22;4.83;;;;;;;20.66;46.84;100619.75;1794538;79;21631;-67
2022/05/10 05:21:05;;;;;;;7.42;5.60;;;;;;;20.66;46.81;100619.75;1779164;79;21139;-67
2022/05/10 05:23:33;;;;;;;7.33;5.67;;;;;;;20.67;46.84;100625.45;1780183;80;21061;-66
2022/05/10 05:25:59;;;;;;;7.20;5.62;;;;;;;20.68;46.81;100620.36;1764191;80;21078;-65
2022/05/10 05:28:25;;;;;;;8.00;5.97;;;;;;;20.68;46.83;100620.36;1780084;79;21097;-67
2022/05/10 05:30:52;;;;;;;6.92;5.25;;;;;;;20.69;46.82;100620.16;1771877;80;21088;-66
2022/05/10 05:33:18;;;;;;;8.38;5.95;;;;;;;20.71;46.84;100622.66;1786266;80;21126;-66
2022/05/10 05:35:45;;;;;;;6.80;5.70;;;;;;;20.73;46.80;100616.52;1787144;79;21062;-66
2022/05/10 05:38:11;;;;;;;6.47;5.30;;;;;;;20.73;46.78;100614.64;1784621;78;21058;-66
2022/05/10 05:40:38;;;;;;;8.15;5.78;;;;;;;20.75;46.79;100612.55;1777053;79;21010;-67
2022/05/10 05:43:06;;;;;;;6.05;5.12;;;;;;;20.76;46.76;100614.19;1773031;79;21526;-67
2022/05/10 05:45:34;;;;;;;7.12;5.42;;;;;;;20.77;46.76;100610.47;1776430;79;21906;-66
2022/05/10 05:48:07;;;;;;;5.92;4.67;;;;;;;20.78;46.74;100609.93;1786666;79;21052;-65
2022/05/10 05:50:33;;;;;;;7.42;5.90;;;;;;;20.79;46.74;100609.73;1784724;80;21002;-65
2022/05/10 05:53:00;;;;;;;7.67;5.58;;;;;;;20.80;46.75;100607.34;1782879;80;21506;-68
2022/05/10 05:55:28;;;;;;;7.37;5.58;;;;;;;20.82;46.74;100604.41;1783575;80;20990;-65
2022/05/10 05:57:55;;;;;;;6.20;4.78;;;;;;;20.83;46.72;100602.56;1775420;80;21200;-66
2022/05/10 06:00:23;;;;;;;6.78;5.25;;;;;;;20.84;46.70;100602.31;1776179;79;21060;-66
2022/05/10 06:02:50;;;;;;;6.53;5.40;;;;;;;20.86;46.72;100602.11;1775058;79;20973;-66
2022/05/10 06:05:19;;;;;;;8.58;5.80;;;;;;;20.86;46.70;100599.41;1767384;79;21108;-66
2022/05/10 06:07:46;;;;;;;7.12;5.45;;;;;;;20.87;46.71;100599.20;1777539;79;21111;-66
2022/05/10 06:10:14;;;;;;;8.40;5.55;;;;;;;20.87;46.72;100595.15;1795760;78;22957;-65
2022/05/10 06:12:41;;;;;;;7.60;5.47;;;;;;;20.90;46.70;100597.93;1817166;78;21037;-65
2022/05/10 06:15:11;;;;;;;7.60;6.10;;;;;;;20.91;46.69;100593.67;1809415;78;21477;-65
2022/05/10 06:17:41;;;;;;;5.92;5.33;;;;;;;20.93;46.68;100598.86;1797955;78;20998;-65
2022/05/10 06:20:10;;;;;;;8.50;5.40;;;;;;;20.94;46.68;100595.14;1792270;79;20989;-66
2022/05/10 06:22:37;;;;;;;7.37;5.72;;;;;;;20.95;46.65;100596.25;1786585;80;21205;-66
2022/05/10 06:25:07;;;;;;;7.33;5.55;;;;;;;20.98;46.64;100596.36;1769071;80;21008;-65
2022/05/10 06:27:36;;;;;;;9.08;5.90;;;;;;;20.99;46.63;100588.54;1772485;80;21046;-66
2022/05/10 06:30:04;;;;;;;7.40;5.12;;;;;;;21.00;46.63;100592.38;1784373;79;21012;-66
2022/05/10 06:32:32;;;;;;;6.60;5.70;;;;;;;21.02;46.60;100592.17;1785382;79;21552;-67
2022/05/10 06:35:00;;;;;;;6.28;5.50;;;;;;;21.03;46.62;100584.89;1761548;80;21140;-67
2022/05/10 06:40:17;;;;;;;7.22;5.70;;;;;;;21.05;46.59;100583.62;1772382;79;21079;-65
2022/05/10 06:42:46;;;;;;;7.17;5.12;;;;;;;21.07;46.60;100586.11;1788177;79;21616;-67
2022/05/10 06:45:15;;;;;;;6.42;4.85;;;;;;;21.08;46.63;100582.38;1791697;78;21163;-65
2022/05/10 06:47:46;;;;;;;7.50;6.00;;;;;;;21.10;46.63;100581.11;1761764;81;21310;-65
2022/05/10 06:50:15;;;;;;;6.85;5.42;;;;;;;21.11;46.59;100582.78;1785216;80;21025;-66
2022/05/10 06:52:42;;;;;;;6.28;4.83;;;;;;;21.13;46.62;100575.78;1810216;78;21048;-67
2022/05/10 06:55:09;;;;;;;6.25;5.10;;;;;;;21.14;46.63;100575.57;1792192;78;21001;-66
2022/05/10 06:57:36;;;;;;;7.33;5.45;;;;;;;21.15;46.66;100573.69;1812676;78;21021;-66
2022/05/10 07:00:06;;;;;;;6.08;5.42;;;;;;;21.16;46.71;100572.13;1782912;79;21337;-66
2022/05/10 07:02:35;;;;;;;5.42;4.85;;;;;;;21.18;46.71;100573.27;1802651;78;20994;-65
2022/05/10 07:05:02;;;;;;;7.20;5.05;;;;;;;21.19;46.71;100570.36;1823540;78;21009;-67
2022/05/10 07:07:29;;;;;;;6.35;5.22;;;;;;;21.21;46.69;100566.91;1817010;78;21573;-66
2022/05/10 07:09:58;;;;;;;6.55;4.97;;;;;;;21.23;46.67;100563.99;1797154;78;20969;-68
2022/05/10 07:12:25;;;;;;;5.87;4.87;;;;;;;21.24;46.68;100562.94;1818027;78;21173;-66
2022/05/10 07:14:52;;;;;;;6.40;4.80;;;;;;;21.26;46.63;100555.44;1827595;78;21045;-67
2022/05/10 07:17:19;;;;;;;6.40;5.25;;;;;;;21.27;46.68;100561.16;1815117;78;21017;-67
2022/05/10 07:19:47;;;;;;;6.08;4.87;;;;;;;21.29;46.64;100556.36;1789461;78;21103;-66
2022/05/10 07:22:16;;;;;;;6.65;5.05;;;;;;;21.30;46.63;100551.24;1792354;78;21636;-65
2022/05/10 07:24:43;;;;;;;7.53;4.85;;;;;;;21.31;46.63;100547.51;1821531;78;21131;-65
2022/05/10 07:27:11;;;;;;;6.87;5.00;;;;;;;21.33;46.63;100543.24;1825479;78;21045;-67
2022/05/10 07:29:38;;;;;;;5.78;5.08;;;;;;;21.34;46.61;100544.38;1767674;79;21037;-67
2022/05/10 07:32:08;;;;;;;6.50;5.35;;;;;;;21.37;46.61;100544.45;1792311;78;21001;-66
2022/05/10 07:34:35;;;;;;;6.22;5.20;;;;;;;21.38;46.57;100539.34;1785568;79;21037;-67
2022/05/10 07:37:02;;;;;;;6.70;4.83;;;;;;;21.39;46.60;100532.36;1814187;78;21145;-67
2022/05/10 07:39:29;;;;;;;6.95;4.97;;;;;;;21.41;46.59;100534.32;1781085;80;21223;-66
2022/05/10 07:42:01;;;;;;;6.37;4.75;;;;;;;21.43;46.58;100533.29;1823545;78;21053;-67
2022/05/10 07:44:27;;;;;;;5.53;4.80;;;;;;;21.45;46.59;100529.87;1808089;78;21057;-68
2022/05/10 07:46:53;;;;;;;4.97;4.47;;;;;;;21.46;46.59;100530.16;1775203;80;21079;-65
2022/05/10 07:49:20;;;;;;;5.67;4.90;;;;;;;21.49;46.57;100531.08;1797096;78;21088;-67
2022/05/10 07:51:49;;;;;;;6.22;5.22;;;;;;;21.48;46.55;100526.20;1775044;79;21470;-66
2022/05/10 07:54:16;;;;;;;6.15;4.95;;;;;;;21.52;46.54;100525.25;1775621;79;20981;-66
2022/05/10 07:56:45;;;;;;;5.90;4.90;;;;;;;21.53;46.52;100518.23;1772378;80;21504;-66
2022/05/10 07:59:13;;;;;;;7.47;5.70;;;;;;;21.55;46.54;100522.08;1819421;78;21061;-66
2022/05/10 08:01:40;;;;;;;5.00;4.28;;;;;;;21.57;46.56;100517.28;1739961;80;21197;-67
2022/05/10 08:04:11;;;;;;;6.20;4.92;;;;;;;21.59;46.58;100519.23;1769311;79;21052;-66
2022/05/10 08:06:38;;;;;;;7.20;4.92;;;;;;;21.61;46.61;100515.78;1788133;79;21089;-66
2022/05/10 08:09:06;;;;;;;5.90;4.75;;;;;;;21.62;46.64;100512.05;1784042;79;21481;-67
2022/05/10 08:11:33;;;;;;;6.22;4.33;;;;;;;21.62;46.59;100510.69;1772482;79;21016;-67
2022/05/10 08:14:00;;;;;;;6.60;4.55;;;;;;;21.65;46.60;100502.65;1765148;79;21156;-66
2022/05/10 08:16:32;;;;;;;5.75;4.60;;;;;;;21.67;46.60;100501.90;1784639;79;21026;-67
2022/05/10 08:18:59;;;;;;;5.35;4.22;;;;;;;21.69;46.56;100494.39;1778586;79;21093;-67
2022/05/10 08:21:26;;;;;;;5.60;4.62;;;;;;;21.70;46.51;100498.23;1793712;79;21073;-68
2022/05/10 08:23:55;;;;;;;5.12;4.25;;;;;;;21.72;46.48;100496.66;1777095;79;21075;-67
2022/05/10 08:26:23;;;;;;;4.83;4.33;;;;;;;21.73;46.48;100488.33;1776802;79;21246;-65
2022/05/10 08:28:51;;;;;;;5.92;4.72;;;;;;;21.76;46.47;100495.98;1776752;79;20993;-66
2022/05/10 08:31:20;;;;;;;6.05;4.50;;;;;;;21.78;46.46;100489.00;1759556;79;21542;-66
2022/05/10 08:33:50;;;;;;;5.83;4.55;;;;;;;21.80;46.48;100489.60;1752279;79;21052;-66
2022/05/10 08:36:17;;;;;;;5.17;4.53;;;;;;;21.80;46.46;100493.12;1793922;79;21140;-67
2022/05/10 08:38:46;;;;;;;5.42;4.08;;;;;;;21.82;46.54;100482.09;1778948;79;21147;-67
2022/05/10 08:41:24;;;;;;;5.20;4.08;;;;;;;21.85;46.52;100491.12;1758563;79;21072;-65
2022/05/10 08:44:18;;;;;;;4.45;3.83;;;;;;;21.86;46.55;100490.59;1774157;79;21242;-67
2022/05/10 08:46:49;;;;;;;5.65;4.83;;;;;;;21.87;46.50;100479.55;1776994;79;21099;-66
2022/05/10 08:49:37;;;;;;;4.95;4.30;;;;;;;21.89;46.51;100473.92;1787286;79;21048;-66
2022/05/10 08:52:06;;;;;;;4.30;3.80;;;;;;;21.90;46.55;100467.44;1774536;79;21158;-67
2022/05/10 08:54:38;;;;;;;4.70;4.12;;;;;;;21.91;46.57;100470.47;1779058;79;21536;-68
2022/05/10 08:57:19;;;;;;;4.72;3.75;;;;;;;21.92;46.58;100463.48;1778054;79;21004;-66
2022/05/10 09:00:10;;;;;;;4.25;3.85;;;;;;;21.94;46.61;100465.94;1780432;79;21049;-67
2022/05/10 09:02:45;;;;;;;5.58;3.87;;;;;;;21.95;46.69;100467.07;1755029;80;21095;-67
2022/05/10 09:05:41;;;;;;;5.15;4.00;;;;;;;21.97;46.75;100457.38;1759685;81;21157;-67
2022/05/10 09:08:37;;;;;;;5.45;4.42;;;;;;;21.98;46.73;100450.40;1752825;80;21023;-67
2022/05/10 09:11:08;;;;;;;3.95;3.65;;;;;;;22.00;46.77;100455.59;1762161;79;21016;-67
2022/05/10 09:13:35;;;;;;;4.85;4.00;;;;;;;22.02;46.81;100449.93;1755264;80;21503;-67
2022/05/10 09:16:09;;;;;;;4.28;3.87;;;;;;;22.04;46.83;100442.41;1756799;80;20973;-66
2022/05/10 09:18:49;;;;;;;5.03;4.00;;;;;;;22.06;46.79;100447.06;1769580;79;21251;-65
2022/05/10 09:21:26;;;;;;;4.65;4.12;;;;;;;22.08;46.84;100444.45;1770403;80;21088;-67
2022/05/10 09:24:21;;;;;;;4.60;4.12;;;;;;;22.11;46.85;100441.81;1764816;80;21052;-67
2022/05/10 09:26:57;;;;;;;4.67;4.17;;;;;;;22.13;46.90;100420.23;1765796;80;21034;-66
2022/05/10 09:29:46;;;;;;;4.33;3.92;;;;;;;22.17;46.97;100431.42;1769722;80;21577;-67
2022/05/10 09:35:15;;;;;;;4.40;3.58;;;;;;;22.23;47.02;100420.22;1772663;79;21044;-66
2022/05/10 09:37:50;;;;;;;4.97;4.15;;;;;;;22.26;46.77;100418.45;1770382;79;21055;-67
2022/05/10 09:40:34;;;;;;;4.20;3.77;;;;;;;22.29;46.73;100415.27;1777009;79;21073;-67
2022/05/10 09:43:26;;;;;;;5.25;3.75;;;;;;;22.31;46.72;100409.10;1745101;79;21072;-68
2022/05/10 09:46:13;;;;;;;3.98;3.58;;;;;;;22.35;46.75;100403.55;1777021;79;21795;-66
2022/05/10 09:48:42;;;;;;;3.87;3.47;;;;;;;22.41;46.65;100401.78;1771483;79;21024;-66
2022/05/10 09:51:37;;;;;;;4.90;3.37;;;;;;;22.44;46.64;100389.97;1767271;79;21097;-68
2022/05/10 09:54:14;;;;;;;4.05;3.20;;;;;;;22.48;46.61;100392.51;1764377;80;21065;-67
2022/05/10 09:56:43;;;;;;;4.30;3.37;;;;;;;22.54;46.61;100392.96;1769664;80;21066;-67
2022/05/10 09:59:28;;;;;;;4.00;3.60;;;;;;;22.58;46.63;100390.08;1768700;80;22155;-66
2022/05/10 10:01:58;;;;;;;3.98;3.58;;;;;;;22.62;46.60;100392.31;1770734;80;21008;-67
2022/05/10 10:04:39;;;;;;;3.83;3.37;;;;;;;22.65;46.58;100389.97;1769892;80;21233;-66
2022/05/10 10:07:13;;;;;;;3.65;3.35;;;;;;;22.70;46.63;100386.05;1766868;80;21033;-67
2022/05/10 10:09:47;;;;;;;4.17;3.60;;;;;;;22.76;46.56;100377.52;1753623;79;21171;-66
2022/05/10 10:12:36;;;;;;;4.40;3.65;;;;;;;22.83;46.55;100376.89;1751306;81;21210;-65
2022/05/10 10:15:40;;;;;;;4.30;3.47;;;;;;;22.89;46.49;100373.24;1749409;81;21038;-65
2022/05/10 10:18:11;;;;;;;4.72;3.90;;;;;;;22.95;46.57;100368.23;1721376;81;21167;-67
2022/05/10 10:20:55;;;;;;;4.25;3.30;;;;;;;22.99;46.73;100360.47;1739139;81;22035;-66
2022/05/10 10:23:31;;;;;;;;;;;;;;;23.03;46.66;100359.50;1744849;81;21093;-66
2022/05/10 10:26:02;;;;;;;4.30;3.87;;;;;;;23.06;46.69;100358.47;1759024;80;21176;-67
2022/05/10 10:28:38;;;;;;;3.72;3.33;;;;;;;23.09;46.66;100365.33;1776147;79;21409;-67
2022/05/10 10:31:23;;;;;;;3.47;3.17;;;;;;;23.09;46.56;100359.91;1786843;79;21027;-66
2022/05/10 10:33:54;;;;;;;3.45;3.05;;;;;;;23.13;46.58;100356.48;1783183;79;21168;-67
2022/05/10 10:36:29;;;;;;;3.87;3.42;;;;;;;23.18;46.54;100346.81;1777068;79;21492;-66
2022/05/10 10:39:08;;;;;;;3.98;3.58;;;;;;;23.21;46.44;100342.28;1787783;79;21225;-67
2022/05/10 10:41:55;;;;;;;4.10;3.50;;;;;;;23.27;46.37;100334.02;1776794;79;21018;-67
2022/05/10 10:44:27;;;;;;;3.42;3.12;;;;;;;23.33;46.18;100334.45;1747203;81;21033;-66
2022/05/10 10:47:27;;;;;;;4.35;2.87;;;;;;;23.40;46.39;100328.06;1749903;81;21582;-66
2022/05/10 10:50:18;;;;;;;3.67;3.27;;;;;;;23.46;46.25;100331.98;1773650;79;21016;-66
2022/05/10 10:52:46;;;;;;;3.10;2.75;;;;;;;23.55;46.05;100328.39;1779720;79;21145;-67
2022/05/10 10:55:18;;;;;;;4.08;3.00;;;;;;;23.63;45.97;100323.94;1770416;79;21245;-66
2022/05/10 10:58:26;;;;;;;4.08;3.42;;;;;;;23.69;45.99;100324.33;1783705;79;21014;-66
2022/05/10 11:01:25;;;;;;;4.03;3.45;;;;;;;23.75;46.00;100320.64;1782701;79;20992;-65
2022/05/10 11:04:10;;;;;;;3.40;3.10;;;;;;;23.84;46.01;100325.73;1772141;80;21035;-66
2022/05/10 11:06:50;;;;;;;3.52;3.12;;;;;;;23.90;45.85;100315.27;1776510;80;21247;-67
2022/05/10 11:09:55;;;;;;;3.50;2.90;;;;;;;23.94;45.84;100302.86;1770310;80;21095;-66
2022/05/10 11:12:56;;;;;;;3.22;2.87;;;;;;;24.00;45.94;100307.85;1780167;80;20990;-67
2022/05/10 11:15:45;;;;;;;2.80;2.50;;;;;;;24.06;45.73;100302.27;1780797;80;21019;-65
2022/05/10 11:18:35;;;;;;;3.27;2.77;;;;;;;24.15;45.67;100298.63;1760676;80;21587;-65
2022/05/10 11:21:40;;;;;;;3.00;2.72;;;;;;;24.25;45.65;100292.55;1774507;80;21154;-66
2022/05/10 11:24:21;;;;;;;2.90;2.65;;;;;;;24.34;45.62;100276.16;1750066;80;21024;-67
2022/05/10 11:27:18;;;;;;;3.12;2.83;;;;;;;24.45;45.62;100279.30;1751551;81;22059;-66
2022/05/10 11:30:00;;;;;;;3.20;2.90;;;;;;;24.56;45.58;100275.44;1766415;79;20994;-67
2022/05/10 11:32:48;;;;;;;3.02;2.67;;;;;;;24.66;45.54;100279.67;1791849;79;21184;-68
2022/05/10 11:35:28;;;;;;;2.83;2.52;;;;;;;24.75;45.50;100278.18;1759123;80;21258;-66
2022/05/10 11:38:14;;;;;;;3.30;2.72;;;;;;;24.84;45.47;100271.26;1762905;80;21080;-66
2022/05/10 11:41:12;;;;;;;3.02;2.72;;;;;;;24.93;45.40;100268.38;1785700;79;21144;-67
2022/05/10 11:43:48;;;;;;;3.40;2.83;;;;;;;25.02;45.35;100257.09;1785503;79;21021;-66
2022/05/10 11:46:35;;;;;;;3.40;3.05;;;;;;;25.11;45.30;100241.45;1785554;78;21088;-67
2022/05/10 11:49:31;;;;;;;2.92;2.70;;;;;;;25.22;45.25;100240.22;1761872;78;21272;-66
2022/05/10 11:52:39;;;;;;;2.85;2.65;;;;;;;25.33;45.20;100243.93;1801844;78;21060;-66
2022/05/10 11:55:32;;;;;;;3.25;2.80;;;;;;;25.44;45.18;100236.98;1764267;78;21045;-65
2022/05/10 11:58:03;;;;;;;3.33;2.90;;;;;;;25.57;45.12;100228.95;1820980;78;21033;-66
2022/05/10 12:00:38;;;;;;;2.83;2.60;;;;;;;25.69;45.10;100213.83;1815251;78;20998;-67
2022/05/10 12:03:12;;;;;;;2.65;2.45;;;;;;;25.80;45.07;100225.66;1805944;78;21255;-67
2022/05/10 12:05:39;;;;;;;2.90;2.70;;;;;;;25.90;45.00;100221.66;1806959;78;21242;-67
2022/05/10 12:08:24;;;;;;;3.30;2.50;;;;;;;26.01;44.92;100215.81;1766440;79;21085;-67